ADDS METAR Data INFO
IDs: Format: Raw Decoded Include TAF

Data at: 1303 UTC 19 Jul 2018

KFFL 191255Z AUTO 10009KT 4SM BR FEW002 FEW008 OVC036 17/15 A2991 RMK AO2 P0001 PWINO
KFFL 191235Z AUTO 09006KT 5SM BR FEW028 OVC037 17/15 A2992 RMK AO2 PWINO
KFFL 191215Z AUTO 09008KT 10SM OVC035 17/16 A2992 RMK AO2 PWINO
KFFL 191155Z AUTO 08009KT 10SM FEW002 OVC037 17/16 A2993 RMK AO2 P0001 PWINO
KFFL 191135Z AUTO 09008KT 6SM BR FEW002 FEW032 OVC038 18/16 A2994 RMK AO2 PWINO
KFFL 191115Z AUTO 10009KT 10SM FEW004 OVC040 18/16 A2994 RMK AO2 PWINO
KFFL 191055Z AUTO 10008KT 10SM FEW005 OVC042 18/16 A2994 RMK AO2 P0002 PWINO
KFFL 191035Z AUTO 09009KT 9SM FEW004 SCT037 BKN042 18/16 A2994 RMK AO2 PWINO
KFFL 191015Z AUTO 07009KT 9SM FEW003 BKN050 OVC060 18/16 A2994 RMK AO2 PWINO
KFFL 190955Z AUTO VRB04G13KT 9SM FEW019 FEW037 OVC060 19/17 A2995 RMK AO2 P0003 PWINO
KFFL 190935Z AUTO 14011G18KT 10SM FEW003 FEW031 OVC060 19/17 A2994 RMK AO2 PWINO
KFFL 190915Z AUTO 13009KT 8SM FEW003 SCT033 OVC060 19/17 A2994 RMK AO2 PWINO
KFFL 190855Z AUTO 11010KT 5SM BR FEW003 SCT034 BKN050 19/17 A2994 RMK AO2 P0004 PWINO
KFFL 190835Z AUTO 14008KT 3SM HZ FEW003 BKN050 OVC065 20/17 A2996 RMK AO2 PWINO
KFFL 190815Z AUTO 15009KT 10SM SCT050 OVC065 20/17 A2996 RMK AO2 PWINO
KFFL 190755Z AUTO 14010G15KT 10SM FEW049 OVC065 21/17 A2995 RMK AO2 PWINO
KFFL 190735Z AUTO 14012G18KT 10SM SCT050 OVC065 22/17 A2995 RMK AO2 PWINO
KFFL 190715Z AUTO 14008G14KT 10SM OVC050 22/17 A2996 RMK AO2 PWINO
KFFL 190655Z AUTO 13007KT 10SM OVC050 22/17 A2996 RMK AO2 PWINO
KFFL 190635Z AUTO 14008KT 10SM OVC050 22/17 A2997 RMK AO2 PWINO
KFFL 190615Z AUTO 14007KT 10SM OVC055 23/18 A2997 RMK AO2 PWINO
KFFL 190555Z AUTO 13008KT 10SM OVC060 23/18 A2998 RMK AO2 PWINO
KFFL 190535Z AUTO 13009KT 10SM OVC060 23/18 A2998 RMK AO2 PWINO
KFFL 190515Z AUTO 13008KT 10SM OVC060 23/18 A2998 RMK AO2 PWINO
KFFL 190455Z AUTO 13008G14KT 10SM OVC065 23/18 A2998 RMK AO2 PWINO
KFFL 190435Z AUTO 12009KT 10SM OVC065 23/19 A2999 RMK AO2 PWINO
KFFL 190415Z AUTO 13007KT 10SM BKN070 OVC110 23/19 A2999 RMK AO2 PWINO
KFFL 190355Z AUTO 13007KT 10SM FEW070 OVC110 23/19 A2999 RMK AO2 PWINO
KFFL 190335Z AUTO 12008KT 10SM FEW080 OVC110 23/19 A2999 RMK AO2 PWINO
KFFL 190315Z AUTO 13008KT 10SM BKN075 BKN085 OVC110 23/19 A2999 RMK AO2 PWINO
KFFL 190255Z AUTO 12007KT 10SM BKN075 OVC100 23/19 A3000 RMK AO2 PWINO
KFFL 190235Z AUTO 12006KT 10SM SCT100 BKN200 BKN220 23/19 A2999 RMK AO2 PWINO
KFFL 190215Z AUTO 12006KT 10SM FEW075 BKN190 OVC210 23/19 A2998 RMK AO2 PWINO
KFFL 190155Z AUTO 13005KT 10SM FEW075 SCT120 OVC200 24/19 A2998 RMK AO2 PWINO
KFFL 190135Z AUTO 13006KT 10SM BKN120 OVC200 24/18 A2998 RMK AO2 PWINO
KFFL 190115Z AUTO 11007KT 10SM BKN120 BKN200 25/18 A2998 RMK AO2 PWINO
KFFL 190055Z AUTO 12009KT 10SM BKN120 BKN200 26/18 A2997 RMK AO2 PWINO
KFFL 190035Z AUTO 12007KT 10SM BKN120 26/18 A2998 RMK AO2 PWINO
KFFL 190015Z AUTO 12008KT 10SM CLR 27/18 A2998 RMK AO2 PWINO
KFFL 182355Z AUTO 12007KT 10SM CLR 28/18 A2998 RMK AO2 PWINO
KFFL 182335Z AUTO 12010KT 10SM CLR 28/17 A2998 RMK AO2 PWINO
KFFL 182315Z AUTO 12008KT 10SM CLR 28/17 A2998 RMK AO2 PWINO
KFFL 182255Z AUTO 12007G13KT CLR 28/17 A2998 RMK AO2 PWINO
KFFL 182235Z AUTO 12011KT 10SM CLR 29/17 A2999 RMK AO2 PWINO
KFFL 182215Z AUTO 10009G14KT 10SM CLR 29/17 A2999 RMK AO2 PWINO
KFFL 182155Z AUTO 11010KT 10SM CLR 29/17 A3000 RMK AO2 PWINO
KFFL 182135Z AUTO 13008G14KT 10SM FEW110 29/17 A3000 RMK AO2 PWINO
KFFL 182115Z AUTO 11008KT 10SM SCT120 29/17 A3001 RMK AO2 PWINO
KFFL 182055Z AUTO 11009G15KT 10SM CLR 29/17 A3001 RMK AO2 PWINO
KFFL 182035Z AUTO 12009KT 10SM CLR 29/17 A3002 RMK AO2 PWINO
KFFL 182015Z AUTO 10007KT 10SM CLR 29/16 A3003 RMK AO2 PWINO
KFFL 181955Z AUTO 12008KT 10SM FEW047 29/17 A3003 RMK AO2 PWINO
KFFL 181935Z AUTO 10007KT 10SM FEW050 28/17 A3004 RMK AO2 PWINO
KFFL 181915Z AUTO 11007KT 10SM CLR 29/17 A3004 RMK AO2 PWINO
KFFL 181855Z AUTO 10008KT 10SM CLR 29/18 A3005 RMK AO2 PWINO
KFFL 181835Z AUTO 13007KT 10SM CLR 28/17 A3005 RMK AO2 PWINO
KFFL 181815Z AUTO 13006KT 10SM CLR 28/19 A3006 RMK AO2 PWINO
KFFL 181755Z AUTO 11006KT 10SM CLR 28/19 A3006 RMK AO2 PWINO
KFFL 181735Z AUTO 11007KT 10SM CLR 28/19 A3006 RMK AO2 PWINO
KFFL 181715Z AUTO 12007KT 100V160 10SM CLR 27/19 A3007 RMK AO2 PWINO
KFFL 181655Z AUTO 13008KT 10SM CLR 27/19 A3008 RMK AO2 PWINO
KFFL 181635Z AUTO 13008KT 10SM CLR 27/19 A3009 RMK AO2 PWINO
KFFL 181615Z AUTO 13004KT 10SM CLR 26/19 A3009 RMK AO2 PWINO
KFFL 181555Z AUTO 11006KT 10SM CLR 25/19 A3009 RMK AO2 PWINO
KFFL 181535Z AUTO 12008KT 10SM CLR 25/19 A3009 RMK AO2 PWINO
KFFL 181515Z AUTO 11006KT 10SM CLR 24/19 A3009 RMK AO2 PWINO
KFFL 181455Z AUTO 12006KT 10SM CLR 24/19 A3008 RMK AO2 PWINO
KFFL 181435Z AUTO 12008KT 10SM CLR 24/19 A3009 RMK AO2 PWINO
KFFL 181415Z AUTO 11006KT 10SM CLR 23/19 A3009 RMK AO2 PWINO
KFFL 181355Z AUTO 14006KT 10SM CLR 22/19 A3010 RMK AO2 PWINO
KFFL 181335Z AUTO 12007KT 10SM CLR 21/18 A3009 RMK AO2 PWINO
KFFL 181315Z AUTO 14007KT 10SM CLR 21/19 A3009 RMK AO2 PWINO
KFFL 181255Z AUTO 12006KT 10SM CLR 20/18 A3009 RMK AO2 PWINO
KFFL 181235Z AUTO 13005KT 20/18 A3009 RMK AO2 PWINO
KFFL 181215Z AUTO 11006KT 10SM CLR 19/18 A3009 RMK AO2 PWINO
KFFL 181155Z AUTO 11003KT 10SM CLR 18/17 A3009 RMK AO2 PWINO
KFFL 181135Z AUTO 11003KT 10SM CLR 18/17 A3008 RMK AO2 PWINO
KFFL 181115Z AUTO 08004KT 10SM CLR 17/16 A3008 RMK AO2 PWINO
KFFL 181055Z AUTO 08004KT 10SM FEW080 17/16 A3007 RMK AO2 PWINO
KFFL 181035Z AUTO 07003KT 10SM FEW080 17/16 A3008 RMK AO2 PWINO
KFFL 181015Z AUTO 07003KT 10SM BKN080 17/16 A3008 RMK AO2 PWINO
KFFL 180955Z AUTO 04004KT 10SM BKN080 18/17 A3008 RMK AO2 PWINO
KFFL 180935Z AUTO 00000KT 10SM SCT080 18/16 A3008 RMK AO2 PWINO
KFFL 180915Z AUTO 04003KT 10SM BKN080 18/17 A3008 RMK AO2 PWINO
KFFL 180855Z AUTO 03005KT 10SM OVC075 18/16 A3007 RMK AO2 PWINO
KFFL 180835Z AUTO 03003KT 10SM BKN075 18/17 A3007 RMK AO2 PWINO
KFFL 180815Z AUTO 02004KT 10SM FEW080 FEW100 18/16 A3008 RMK AO2 PWINO
KFFL 180755Z AUTO 36003KT 10SM CLR 18/17 A3008 RMK AO2 PWINO
KFFL 180735Z AUTO 00000KT 10SM CLR 18/16 A3008 RMK AO2 PWINO
KFFL 180715Z AUTO 00000KT 10SM CLR 18/17 A3008 RMK AO2 PWINO
KFFL 180655Z AUTO 00000KT 10SM CLR 18/17 A3008 RMK AO2 PWINO
KFFL 180635Z AUTO 00000KT 10SM CLR 18/17 A3008 RMK AO2 PWINO
KFFL 180615Z AUTO 00000KT 10SM CLR 19/17 A3008 RMK AO2 PWINO
KFFL 180555Z AUTO 00000KT 10SM CLR 19/17 A3008 RMK AO2 PWINO
KFFL 180535Z AUTO 00000KT 10SM CLR 19/17 A3007 RMK AO2 PWINO
KFFL 180515Z AUTO 00000KT 10SM CLR 19/17 A3008 RMK AO2 PWINO
KFFL 180455Z AUTO 00000KT 10SM CLR 19/17 A3008 RMK AO2 PWINO
KFFL 180435Z AUTO 00000KT 10SM CLR 20/18 A3008 RMK AO2 PWINO
KFFL 180415Z AUTO 00000KT 10SM CLR 20/18 A3007 RMK AO2 PWINO
KFFL 180355Z AUTO 04003KT 10SM CLR 21/18 A3007 RMK AO2 PWINO
KFFL 180335Z AUTO 00000KT 10SM CLR 21/18 A3007 RMK AO2 PWINO
KFFL 180315Z AUTO 00000KT 10SM CLR 21/18 A3007 RMK AO2 PWINO
KFFL 180255Z AUTO 00000KT 10SM CLR 21/18 A3007 RMK AO2 PWINO
KFFL 180235Z AUTO 00000KT 10SM CLR 22/19 A3006 RMK AO2 PWINO
KFFL 180215Z AUTO 00000KT 10SM CLR 23/19 A3006 RMK AO2 PWINO
KFFL 180155Z AUTO 00000KT 10SM CLR 22/19 A3006 RMK AO2 PWINO
KFFL 180135Z AUTO 36003KT 10SM CLR 24/20 A3006 RMK AO2 PWINO
KFFL 180115Z AUTO 02003KT 10SM CLR 25/19 A3006 RMK AO2 PWINO